createdAt,value
2023-05-05T00:03:20.837Z,101513.60
2023-05-05T00:08:23.830Z,101520.20
2023-05-05T00:13:26.385Z,101526.00
2023-05-05T00:18:29.532Z,101531.80
2023-05-05T00:23:32.219Z,101530.00
2023-05-05T00:28:34.764Z,101524.60
2023-05-05T00:33:37.353Z,101525.80
2023-05-05T00:38:39.949Z,101519.40
2023-05-05T00:43:42.660Z,101521.80
2023-05-05T00:48:45.526Z,101517.80
2023-05-05T00:53:48.901Z,101512.00
2023-05-05T00:58:51.491Z,101510.00
2023-05-05T01:03:54.195Z,101506.40
2023-05-05T01:09:21.024Z,101499.60
2023-05-05T01:14:40.811Z,101502.20
2023-05-05T01:20:02.660Z,101511.40
2023-05-05T01:25:31.203Z,101503.40
2023-05-05T01:31:18.904Z,101506.60
2023-05-05T01:36:36.138Z,101505.80
2023-05-05T01:41:47.994Z,101506.40
2023-05-05T01:46:53.358Z,101499.20
2023-05-05T01:51:57.946Z,101497.40
2023-05-05T01:57:04.931Z,101500.40
2023-05-05T02:02:12.004Z,101500.40
2023-05-05T02:07:16.907Z,101500.80
2023-05-05T02:12:22.437Z,101497.20
2023-05-05T02:17:27.614Z,101497.80
2023-05-05T02:22:31.696Z,101497.80
2023-05-05T02:27:41.563Z,101498.60
2023-05-05T02:33:00.668Z,101504.40
2023-05-05T02:38:06.367Z,101498.40
2023-05-05T02:43:15.505Z,101508.20
2023-05-05T02:48:18.184Z,101509.40
2023-05-05T02:53:25.780Z,101516.00
2023-05-05T02:58:48.988Z,101523.40
2023-05-05T03:04:34.896Z,101521.20
2023-05-05T03:09:45.807Z,101514.80
2023-05-05T03:14:55.426Z,101510.80
2023-05-05T03:19:58.459Z,101519.80
2023-05-05T03:25:00.988Z,101529.40
2023-05-05T03:30:04.218Z,101540.20
2023-05-05T03:35:07.525Z,101535.40
2023-05-05T03:40:11.197Z,101540.60
2023-05-05T03:45:13.839Z,101539.00
2023-05-05T03:50:16.692Z,101546.00
2023-05-05T03:55:19.380Z,101551.60
2023-05-05T04:00:22.149Z,101544.00
2023-05-05T04:05:25.355Z,101558.80
2023-05-05T04:10:28.114Z,101560.80
2023-05-05T04:15:30.967Z,101567.20
2023-05-05T04:20:35.364Z,101570.20
2023-05-05T04:25:37.976Z,101569.60
2023-05-05T04:30:40.968Z,101573.40
2023-05-05T04:35:43.531Z,101574.20
2023-05-05T04:40:46.285Z,101584.20
2023-05-05T04:45:56.126Z,101579.00
2023-05-05T04:51:03.833Z,101583.60
2023-05-05T04:56:06.684Z,101587.80
2023-05-05T05:01:09.254Z,101589.60
2023-05-05T05:06:11.853Z,101587.20
2023-05-05T05:11:14.472Z,101590.40
2023-05-05T05:16:17.142Z,101588.00
2023-05-05T05:21:20.270Z,101579.60
2023-05-05T05:26:23.462Z,101582.60
2023-05-05T05:31:26.091Z,101585.20
2023-05-05T05:36:28.763Z,101594.60
2023-05-05T05:41:31.290Z,101569.60
2023-05-05T05:46:33.930Z,101551.20
2023-05-05T05:51:36.722Z,101584.60
2023-05-05T05:56:39.423Z,101593.20
2023-05-05T06:01:42.169Z,101586.80
2023-05-05T06:06:46.608Z,101585.00
2023-05-05T06:11:49.263Z,101596.40
2023-05-05T06:16:52.816Z,101571.40
2023-05-05T06:21:55.499Z,101537.00
2023-05-05T06:27:02.462Z,101552.40
2023-05-05T06:32:08.361Z,101549.40
2023-05-05T06:37:11.258Z,101546.20
2023-05-05T06:42:13.788Z,101549.00
2023-05-05T06:47:16.493Z,101544.20
2023-05-05T06:52:19.095Z,101546.20
2023-05-05T06:57:21.678Z,101553.20
2023-05-05T07:02:26.550Z,101555.00
2023-05-05T07:07:29.762Z,101556.60
2023-05-05T07:12:32.409Z,101561.60
2023-05-05T07:17:35.073Z,101560.60
2023-05-05T07:22:37.627Z,101560.20
2023-05-05T07:27:40.926Z,101560.00
2023-05-05T07:32:43.557Z,101567.20
2023-05-05T07:37:47.080Z,101572.20
2023-05-05T07:42:49.633Z,101578.40
2023-05-05T07:47:52.339Z,101583.20
2023-05-05T07:53:02.369Z,101588.80
2023-05-05T07:58:13.279Z,101597.00
2023-05-05T08:03:15.948Z,101595.00
2023-05-05T08:08:18.672Z,101599.00
2023-05-05T08:13:21.276Z,101619.00
2023-05-05T08:18:24.639Z,101608.40
2023-05-05T08:23:27.398Z,101612.60
2023-05-05T08:28:30.233Z,101615.60
2023-05-05T08:33:33.185Z,101614.80
2023-05-05T08:38:36.345Z,101616.40
2023-05-05T08:43:39.437Z,101622.80
2023-05-05T08:48:44.463Z,101630.20
2023-05-05T08:54:05.151Z,101625.00
2023-05-05T08:59:11.069Z,101634.60
2023-05-05T09:04:14.195Z,101637.40
2023-05-05T09:09:17.553Z,101640.00
2023-05-05T09:14:20.185Z,101645.40
2023-05-05T09:19:24.026Z,101648.20
2023-05-05T09:24:26.707Z,101652.40
2023-05-05T09:29:29.400Z,101677.20
2023-05-05T09:34:35.960Z,101655.40
2023-05-05T09:39:54.398Z,101665.80
2023-05-05T09:44:59.673Z,101666.20
2023-05-05T09:50:04.278Z,101658.80
2023-05-05T09:55:17.906Z,101657.80
2023-05-05T10:00:21.048Z,101652.80
2023-05-05T10:05:23.803Z,101653.20
2023-05-05T10:10:28.633Z,101655.80
2023-05-05T10:15:31.830Z,101665.80
2023-05-05T10:20:38.179Z,101682.80
2023-05-05T10:25:55.566Z,101678.80
2023-05-05T10:31:02.170Z,101676.40
2023-05-05T10:36:07.731Z,101682.00
2023-05-05T10:41:13.659Z,101684.80
2023-05-05T10:46:16.559Z,101676.00
2023-05-05T10:51:43.139Z,101674.20
2023-05-05T10:56:47.111Z,101691.80
2023-05-05T11:01:52.080Z,101684.00
2023-05-05T11:07:27.097Z,101671.80
2023-05-05T11:12:37.286Z,101670.00
2023-05-05T11:17:52.558Z,101677.60
2023-05-05T11:23:04.994Z,101664.40
2023-05-05T11:28:17.441Z,101668.60
2023-05-05T11:33:30.866Z,101656.80
2023-05-05T11:39:11.563Z,101651.60
2023-05-05T11:44:30.440Z,101655.20
2023-05-05T11:49:34.951Z,101651.20
2023-05-05T11:54:41.555Z,101656.00
2023-05-05T12:00:08.229Z,101649.00
2023-05-05T12:05:11.273Z,101644.40
2023-05-05T12:10:21.913Z,101651.20
2023-05-05T12:15:32.566Z,101654.20
2023-05-05T12:20:36.621Z,101644.40
2023-05-05T12:25:40.926Z,101639.60
2023-05-05T12:30:43.514Z,101646.40
2023-05-05T12:35:46.346Z,101647.00
2023-05-05T12:40:53.930Z,101633.40
2023-05-05T12:46:12.252Z,101637.60
2023-05-05T12:51:23.470Z,101627.00
2023-05-05T12:56:43.005Z,101627.40
2023-05-05T13:01:54.084Z,101637.00
2023-05-05T13:07:12.745Z,101634.60
2023-05-05T13:12:19.170Z,101633.40
2023-05-05T13:17:22.000Z,101628.00
2023-05-05T13:22:24.816Z,101623.00
2023-05-05T13:27:27.637Z,101612.60
2023-05-05T13:32:30.554Z,101611.60
2023-05-05T13:37:33.336Z,101613.80
2023-05-05T13:42:35.999Z,101599.00
2023-05-05T13:47:38.917Z,101595.60
2023-05-05T13:52:42.087Z,101602.40
2023-05-05T13:57:44.709Z,101593.60
2023-05-05T14:02:49.868Z,101596.60
2023-05-05T14:07:54.197Z,101594.00
2023-05-05T14:12:57.525Z,101588.40
2023-05-05T14:18:02.772Z,101590.20
2023-05-05T14:23:05.595Z,101581.60
2023-05-05T14:28:08.378Z,101586.80
2023-05-05T14:33:11.100Z,101586.80
2023-05-05T14:38:13.681Z,101588.20
2023-05-05T14:43:16.311Z,101592.00
2023-05-05T14:48:22.067Z,101595.60
2023-05-05T14:53:24.692Z,101594.00
2023-05-05T14:58:27.355Z,101594.20
2023-05-05T15:03:30.229Z,101587.60
2023-05-05T15:08:32.948Z,101585.80
2023-05-05T15:13:38.514Z,101591.80
2023-05-05T15:18:41.177Z,101594.00
2023-05-05T15:23:43.798Z,101593.00
2023-05-05T15:28:48.236Z,101595.40
2023-05-05T15:33:52.430Z,101590.20
2023-05-05T15:38:56.766Z,101589.00
2023-05-05T15:44:00.508Z,101589.80
2023-05-05T15:49:03.404Z,101591.60
2023-05-05T15:54:06.075Z,101588.40
2023-05-05T15:59:08.657Z,101585.40
2023-05-05T16:04:11.271Z,101580.80
2023-05-05T16:09:13.910Z,101585.80
2023-05-05T16:14:16.530Z,101586.00
2023-05-05T16:19:19.423Z,101581.20
2023-05-05T16:24:22.897Z,101579.80
2023-05-05T16:29:25.874Z,101572.60
2023-05-05T16:34:28.536Z,101578.00
2023-05-05T16:39:32.949Z,101570.60
2023-05-05T16:44:35.784Z,101569.60
2023-05-05T16:49:38.468Z,101571.00
2023-05-05T16:54:41.739Z,101572.80
2023-05-05T16:59:44.336Z,101580.00
2023-05-05T17:04:47.264Z,101586.40
2023-05-05T17:09:50.066Z,101582.80
2023-05-05T17:14:52.637Z,101585.00
2023-05-05T17:19:56.066Z,101590.40
2023-05-05T17:24:58.752Z,101594.00
2023-05-05T17:30:01.412Z,101599.40
2023-05-05T17:35:04.280Z,101611.40
2023-05-05T17:40:07.942Z,101608.80
2023-05-05T17:45:11.527Z,101611.20
2023-05-05T17:50:14.546Z,101617.20
2023-05-05T17:55:17.250Z,101615.60
2023-05-05T18:00:21.134Z,101622.80
2023-05-05T18:05:23.678Z,101627.20
2023-05-05T18:10:26.319Z,101631.20
2023-05-05T18:15:30.083Z,101633.60
2023-05-05T18:20:32.780Z,101643.20
2023-05-05T18:25:35.476Z,101647.40
2023-05-05T18:30:38.520Z,101650.60
2023-05-05T18:35:41.416Z,101651.20
2023-05-05T18:40:45.257Z,101657.60
2023-05-05T18:45:47.883Z,101656.20
2023-05-05T18:50:51.391Z,101661.40
2023-05-05T18:55:53.980Z,101671.40
2023-05-05T19:00:58.006Z,101679.80
2023-05-05T19:06:06.037Z,101677.20
2023-05-05T19:11:08.769Z,101679.60
2023-05-05T19:16:11.925Z,101677.40
2023-05-05T19:21:14.752Z,101687.20
2023-05-05T19:26:17.341Z,101683.00
2023-05-05T19:31:20.010Z,101682.60
2023-05-05T19:36:23.058Z,101676.20
2023-05-05T19:41:26.481Z,101679.60
2023-05-05T19:46:29.707Z,101676.60
2023-05-05T19:51:32.424Z,101686.20
2023-05-05T19:56:35.319Z,101684.80
2023-05-05T20:01:42.192Z,101693.60
2023-05-05T20:06:44.812Z,101696.40
2023-05-05T20:11:58.983Z,101693.20
2023-05-05T20:17:02.805Z,101693.00
2023-05-05T20:22:05.396Z,101693.60
2023-05-05T20:27:32.191Z,101696.20
2023-05-05T20:32:37.753Z,101697.00
2023-05-05T20:37:41.409Z,101694.00
2023-05-05T20:42:44.008Z,101704.20
2023-05-05T20:47:46.689Z,101704.00
2023-05-05T20:52:49.611Z,101702.20
2023-05-05T20:57:52.194Z,101706.00
2023-05-05T21:02:56.960Z,101709.40
2023-05-05T21:08:01.053Z,101707.60
2023-05-05T21:13:04.431Z,101712.20
2023-05-05T21:18:07.705Z,101711.80
2023-05-05T21:23:10.541Z,101708.80
2023-05-05T21:28:13.096Z,101709.20
2023-05-05T21:33:15.691Z,101702.20
2023-05-05T21:38:18.468Z,101709.00
2023-05-05T21:43:21.080Z,101704.20
2023-05-05T21:48:23.647Z,101710.80
2023-05-05T21:53:26.360Z,101709.60
2023-05-05T21:58:29.328Z,101709.80
2023-05-05T22:03:34.326Z,101710.80
2023-05-05T22:08:37.092Z,101711.40
2023-05-05T22:13:39.897Z,101708.80
2023-05-05T22:18:42.450Z,101715.60
2023-05-05T22:23:46.124Z,101704.40
2023-05-05T22:28:48.736Z,101701.80
2023-05-05T22:33:51.265Z,101706.80
2023-05-05T22:38:53.862Z,101706.60
2023-05-05T22:43:56.455Z,101707.00
2023-05-05T22:48:59.060Z,101695.80
2023-05-05T22:54:01.854Z,101707.80
2023-05-05T22:59:05.618Z,101699.20
2023-05-05T23:04:08.252Z,101706.20
2023-05-05T23:09:10.804Z,101708.80
2023-05-05T23:14:13.401Z,101709.00
2023-05-05T23:19:15.981Z,101702.20
2023-05-05T23:24:18.524Z,101701.00
2023-05-05T23:29:21.241Z,101693.60
2023-05-05T23:34:24.364Z,101695.60
2023-05-05T23:39:27.021Z,101691.40
2023-05-05T23:44:29.837Z,101676.20
2023-05-05T23:49:32.505Z,101692.40
2023-05-05T23:54:35.222Z,101690.80
2023-05-05T23:59:39.228Z,101689.00
